createdAt,value
2019-01-31T00:00:32.154Z,18.10
2019-01-31T00:07:10.106Z,19.23
2019-01-31T00:13:46.242Z,20.40
2019-01-31T00:20:16.250Z,33.83
2019-01-31T00:26:51.854Z,29.70
2019-01-31T00:33:29.324Z,24.53
2019-01-31T00:40:14.803Z,21.27
2019-01-31T00:47:02.726Z,20.87
2019-01-31T00:53:56.917Z,21.50
2019-01-31T01:00:40.802Z,20.03
2019-01-31T01:07:38.436Z,17.33
2019-01-31T01:14:22.123Z,20.10
2019-01-31T01:20:50.531Z,18.40
2019-01-31T01:27:10.610Z,17.73
2019-01-31T01:33:48.555Z,17.57
2019-01-31T01:40:32.317Z,17.73
2019-01-31T01:47:20.378Z,17.57
2019-01-31T01:53:43.213Z,16.47
2019-01-31T02:00:30.365Z,17.03
2019-01-31T02:06:49.287Z,18.13
2019-01-31T02:13:44.533Z,18.13
2019-01-31T02:20:11.945Z,19.03
2019-01-31T02:27:18.619Z,19.23
2019-01-31T02:34:12.861Z,21.47
2019-01-31T02:41:13.045Z,19.67
2019-01-31T02:47:58.235Z,20.07
2019-01-31T02:54:51.477Z,20.17
2019-01-31T03:01:36.558Z,19.70
2019-01-31T03:08:10.942Z,20.33
2019-01-31T03:14:38.822Z,22.27
2019-01-31T03:21:39.196Z,21.03
2019-01-31T03:28:21.626Z,20.43
2019-01-31T03:35:28.039Z,21.27
2019-01-31T03:41:48.212Z,19.57
2019-01-31T03:48:25.192Z,21.70
2019-01-31T03:54:43.902Z,21.27
2019-01-31T04:01:20.434Z,19.07
2019-01-31T04:07:24.681Z,22.40
2019-01-31T04:13:28.930Z,20.70
2019-01-31T04:19:33.146Z,22.90
2019-01-31T04:25:37.875Z,23.47
2019-01-31T04:31:42.233Z,20.53
2019-01-31T04:37:46.539Z,21.70
2019-01-31T04:43:50.825Z,19.00
2019-01-31T04:49:55.123Z,19.17
2019-01-31T04:55:59.346Z,20.63
2019-01-31T05:02:03.732Z,18.13
2019-01-31T05:08:08.019Z,19.73
2019-01-31T05:14:12.234Z,18.10
2019-01-31T05:20:18.516Z,17.60
2019-01-31T05:26:22.789Z,20.40
2019-01-31T05:32:27.051Z,20.83
2019-01-31T05:38:31.276Z,20.43
2019-01-31T05:44:35.585Z,20.80
2019-01-31T05:50:39.820Z,20.07
2019-01-31T05:56:44.038Z,23.50
2019-01-31T06:02:48.337Z,22.00
2019-01-31T06:08:52.617Z,20.33
2019-01-31T06:14:56.906Z,23.40
2019-01-31T06:21:01.257Z,20.23
2019-01-31T06:27:05.495Z,18.87
2019-01-31T06:33:09.713Z,18.77
2019-01-31T06:39:14.013Z,15.23
2019-01-31T06:45:19.540Z,13.23
2019-01-31T06:51:24.009Z,14.40
2019-01-31T06:57:28.238Z,18.90
2019-01-31T07:03:32.578Z,18.83
2019-01-31T07:09:36.820Z,19.73
2019-01-31T07:15:41.138Z,16.53
2019-01-31T07:21:45.399Z,15.13
2019-01-31T07:27:49.751Z,16.77
2019-01-31T07:33:54.000Z,14.27
2019-01-31T07:39:58.228Z,15.17
2019-01-31T07:46:02.528Z,13.87
2019-01-31T07:52:06.798Z,13.07
2019-01-31T07:58:11.089Z,14.67
2019-01-31T08:04:15.601Z,13.33
2019-01-31T08:10:27.876Z,13.30
2019-01-31T08:16:32.110Z,10.20
2019-01-31T08:22:36.525Z,11.77
2019-01-31T08:28:40.803Z,12.23
2019-01-31T08:34:45.080Z,10.13
2019-01-31T08:40:49.283Z,11.97
2019-01-31T08:46:53.519Z,10.67
2019-01-31T08:52:57.749Z,12.07
2019-01-31T08:59:02.103Z,13.93
2019-01-31T09:05:06.839Z,14.50
2019-01-31T09:11:11.039Z,12.20
2019-01-31T09:17:15.379Z,8.00
2019-01-31T09:23:48.261Z,8.70
2019-01-31T09:30:45.505Z,8.23
2019-01-31T09:37:50.167Z,8.47
2019-01-31T09:44:32.531Z,7.47
2019-01-31T09:51:17.477Z,6.97
2019-01-31T09:58:11.624Z,8.13
2019-01-31T10:04:43.553Z,8.70
2019-01-31T10:11:29.607Z,13.70
2019-01-31T10:18:12.514Z,13.93
2019-01-31T10:24:50.961Z,39.20
2019-01-31T10:31:26.059Z,51.83
2019-01-31T10:38:09.840Z,13.80
2019-01-31T10:44:37.035Z,16.73
2019-01-31T10:51:06.007Z,12.23
2019-01-31T10:57:39.010Z,12.00
2019-01-31T11:04:15.014Z,11.27
2019-01-31T11:10:44.056Z,12.47
2019-01-31T11:17:03.280Z,12.47
2019-01-31T11:23:22.420Z,13.33
2019-01-31T11:29:53.706Z,14.57
2019-01-31T11:36:26.306Z,12.80
2019-01-31T11:43:14.742Z,14.40
2019-01-31T11:49:59.094Z,14.70
2019-01-31T11:56:50.645Z,13.23
2019-01-31T12:02:55.422Z,12.27
2019-01-31T12:08:59.633Z,12.27
2019-01-31T12:15:04.038Z,9.90
2019-01-31T12:21:08.265Z,9.53
2019-01-31T12:27:12.554Z,9.70
2019-01-31T12:33:16.840Z,13.20
2019-01-31T12:39:21.070Z,16.80
2019-01-31T12:45:25.290Z,12.03
2019-01-31T12:51:29.931Z,17.20
2019-01-31T12:57:34.161Z,14.70
2019-01-31T13:03:38.985Z,24.07
2019-01-31T13:09:43.286Z,12.97
2019-01-31T13:15:47.539Z,15.97
2019-01-31T13:21:51.861Z,13.73
2019-01-31T13:27:56.089Z,11.50
2019-01-31T13:34:00.355Z,19.97
2019-01-31T13:40:05.361Z,14.77
2019-01-31T13:46:10.076Z,16.77
2019-01-31T13:52:14.379Z,17.63
2019-01-31T13:58:18.592Z,20.23
2019-01-31T14:04:22.843Z,16.23
2019-01-31T14:10:27.340Z,17.50
2019-01-31T14:16:31.545Z,16.77
2019-01-31T14:22:42.877Z,12.50
2019-01-31T14:28:41.667Z,11.80
2019-01-31T14:34:46.048Z,12.50
2019-01-31T14:40:50.288Z,12.57
2019-01-31T14:46:54.562Z,11.70
2019-01-31T14:52:58.764Z,11.40
2019-01-31T14:59:03.094Z,11.17
2019-01-31T15:05:09.522Z,10.40
2019-01-31T15:11:13.744Z,11.20
2019-01-31T15:17:18.066Z,10.87
2019-01-31T15:23:22.288Z,11.30
2019-01-31T15:29:26.578Z,10.27
2019-01-31T15:35:31.115Z,11.47
2019-01-31T15:41:35.474Z,11.57
2019-01-31T15:47:39.712Z,16.33
2019-01-31T15:53:44.126Z,13.17
2019-01-31T15:59:48.402Z,12.10
2019-01-31T16:05:52.823Z,13.23
2019-01-31T16:11:59.708Z,12.70
2019-01-31T16:18:03.162Z,13.10
2019-01-31T16:24:07.384Z,12.90
2019-01-31T16:30:13.081Z,12.47
2019-01-31T16:36:17.567Z,11.93
2019-01-31T16:42:21.815Z,12.07
2019-01-31T16:48:26.074Z,12.30
2019-01-31T16:54:30.373Z,11.33
2019-01-31T17:00:34.988Z,11.73
2019-01-31T17:06:39.428Z,11.43
2019-01-31T17:12:43.795Z,13.77
2019-01-31T17:18:48.109Z,12.73
2019-01-31T17:24:52.594Z,14.23
2019-01-31T17:30:56.874Z,16.23
2019-01-31T17:37:01.293Z,15.10
2019-01-31T17:43:06.009Z,15.77
2019-01-31T17:49:10.255Z,14.40
2019-01-31T17:55:16.532Z,18.63
2019-01-31T18:01:20.902Z,15.43
2019-01-31T18:07:25.126Z,18.63
2019-01-31T18:13:29.401Z,20.67
2019-01-31T18:19:33.651Z,19.20
2019-01-31T18:25:38.018Z,19.53
2019-01-31T18:31:42.237Z,19.80
2019-01-31T18:37:46.496Z,21.63
2019-01-31T18:43:50.901Z,20.93
2019-01-31T18:49:55.221Z,22.03
2019-01-31T18:55:59.511Z,21.77
2019-01-31T19:02:03.963Z,22.87
2019-01-31T19:08:09.413Z,26.33
2019-01-31T19:14:14.491Z,22.47
2019-01-31T19:20:21.359Z,24.80
2019-01-31T19:26:25.639Z,23.47
2019-01-31T19:32:29.844Z,22.37
2019-01-31T19:38:34.172Z,23.60
2019-01-31T19:44:41.743Z,24.63
2019-01-31T19:50:44.678Z,26.30
2019-01-31T19:56:48.906Z,24.00
2019-01-31T20:02:53.336Z,22.23
2019-01-31T20:08:57.684Z,22.60
2019-01-31T20:15:02.008Z,20.80
2019-01-31T20:21:06.309Z,18.83
2019-01-31T20:27:10.654Z,19.73
2019-01-31T20:33:14.915Z,16.10
2019-01-31T20:39:19.345Z,17.53
2019-01-31T20:45:23.665Z,18.70
2019-01-31T20:51:27.872Z,21.27
2019-01-31T20:57:32.178Z,20.03
2019-01-31T21:03:36.517Z,19.23
2019-01-31T21:09:40.807Z,18.50
2019-01-31T21:15:45.035Z,18.83
2019-01-31T21:21:49.301Z,19.10
2019-01-31T21:27:53.711Z,20.30
2019-01-31T21:33:57.929Z,16.73
2019-01-31T21:40:02.226Z,17.03
2019-01-31T21:46:06.563Z,18.10
2019-01-31T21:52:10.778Z,15.83
2019-01-31T21:58:15.384Z,16.00
2019-01-31T22:04:19.585Z,14.80
2019-01-31T22:10:24.043Z,13.97
2019-01-31T22:16:28.342Z,13.77
2019-01-31T22:22:32.690Z,14.60
2019-01-31T22:28:36.913Z,14.20
2019-01-31T22:34:41.222Z,14.57
2019-01-31T22:40:45.627Z,14.93
2019-01-31T22:46:49.868Z,14.60
2019-01-31T22:52:54.064Z,15.73
2019-01-31T22:58:58.325Z,17.73
2019-01-31T23:05:02.970Z,16.30
2019-01-31T23:11:07.350Z,16.63
2019-01-31T23:17:11.569Z,16.73
2019-01-31T23:23:15.767Z,17.20
2019-01-31T23:29:20.026Z,19.73
2019-01-31T23:35:24.239Z,19.13
2019-01-31T23:41:28.674Z,20.23
2019-01-31T23:47:32.995Z,20.57
2019-01-31T23:53:37.337Z,22.43
2019-01-31T23:59:41.588Z,24.47
